Time;durP1;ratioP1;P1;durP2;ratioP2;P2;SDS_P1;SDS_P2;PMS_P1;PMS_P2;Temp;Humidity;BMP_temperature;BMP_pressure;BME280_temperature;BME280_humidity;BME280_pressure;Samples;Min_cycle;Max_cycle;Signal;HPM_P1;HPM_P2
2022/06/14 00:03:05;;;;;;;;;;;;;;;;;;4985721;28;19925;-92
2022/06/14 00:05:31;;;;;;;;;;;;;;;;;;4980759;28;19914;-91
2022/06/14 00:08:03;;;;;;;;;;;;;;;;;;4968165;28;20369;-92
2022/06/14 00:10:30;;;;;;;;;;;;;;;;;;4971262;28;19941;-92
2022/06/14 00:12:55;;;;;;;;;;;;;;;;;;4966506;28;20012;-91
2022/06/14 00:15:21;;;;;;;;;;;;;;;;;;4983241;28;19989;-90
2022/06/14 00:17:47;;;;;;;;;;;;;;;;;;4975707;28;19910;-92
2022/06/14 00:20:13;;;;;;;;;;;;;;;;;;4970339;28;19913;-91
2022/06/14 00:22:40;;;;;;;;;;;;;;;;;;4970454;28;20000;-92
2022/06/14 00:25:06;;;;;;;;;;;;;;;;;;4988111;28;19914;-90
2022/06/14 00:27:32;;;;;;;;;;;;;;;;;;4977136;28;19910;-91
2022/06/14 00:29:58;;;;;;;;;;;;;;;;;;4973917;28;19910;-92
2022/06/14 00:32:24;;;;;;;;;;;;;;;;;;4969530;28;20130;-90
2022/06/14 00:34:50;;;;;;;;;;;;;;;;;;4967692;28;19972;-91
2022/06/14 00:37:16;;;;;;;;;;;;;;;;;;4962642;28;19948;-91
2022/06/14 00:39:42;;;;;;;;;;;;;;;;;;4985505;28;19913;-91
2022/06/14 00:42:07;;;;;;;;;;;;;;;;;;4981719;28;19964;-91
2022/06/14 00:44:33;;;;;;;;;;;;;;;;;;4985458;28;19910;-92
2022/06/14 00:46:59;;;;;;;;;;;;;;;;;;4978511;28;19956;-90
2022/06/14 00:49:25;;;;;;;;;;;;;;;;;;4965989;28;19985;-92
2022/06/14 00:51:51;;;;;;;;;;;;;;;;;;4966111;28;19924;-92
2022/06/14 00:54:17;;;;;;;;;;;;;;;;;;4965060;28;19914;-92
2022/06/14 00:56:43;;;;;;;;;;;;;;;;;;4977074;28;19910;-91
2022/06/14 00:59:09;;;;;;;;;;;;;;;;;;4971906;28;19913;-91
2022/06/14 01:01:35;;;;;;;;;;;;;;;;;;4973160;28;20282;-91
2022/06/14 01:04:01;;;;;;;;;;;;;;;;;;4964125;28;19921;-91
2022/06/14 01:06:27;;;;;;;;;;;;;;;;;;4985531;28;20384;-89
2022/06/14 01:08:56;;;;;;;;;;;;;;;;;;4972352;28;19910;-92
2022/06/14 01:11:22;;;;;;;;;;;;;;;;;;4963925;28;19914;-92
2022/06/14 01:13:48;;;;;;;;;;;;;;;;;;4957083;28;19920;-90
2022/06/14 01:16:14;;;;;;;;;;;;;;;;;;4969568;28;19916;-90
2022/06/14 01:18:40;;;;;;;;;;;;;;;;;;4970555;28;19910;-91
2022/06/14 01:21:06;;;;;;;;;;;;;;;;;;4970460;28;20381;-91
2022/06/14 01:23:32;;;;;;;;;;;;;;;;;;4972718;28;19920;-91
2022/06/14 01:25:57;;;;;;;;;;;;;;;;;;4972113;28;20004;-91
2022/06/14 01:28:23;;;;;;;;;;;;;;;;;;4977255;28;19917;-91
2022/06/14 01:30:49;;;;;;;;;;;;;;;;;;4967290;28;19917;-90
2022/06/14 01:33:15;;;;;;;;;;;;;;;;;;4984819;28;19972;-90
2022/06/14 01:35:41;;;;;;;;;;;;;;;;;;4983853;28;19929;-92
2022/06/14 01:38:07;;;;;;;;;;;;;;;;;;4969910;28;19906;-91
2022/06/14 01:40:33;;;;;;;;;;;;;;;;;;4988650;28;20056;-92
2022/06/14 01:42:59;;;;;;;;;;;;;;;;;;4969615;28;19910;-91
2022/06/14 01:45:25;;;;;;;;;;;;;;;;;;4982165;28;19917;-91
2022/06/14 01:47:51;;;;;;;;;;;;;;;;;;4964832;28;19920;-91
2022/06/14 01:53:01;;;;;;;;;;;;;;;;;;4985820;28;19972;-91
2022/06/14 01:55:27;;;;;;;;;;;;;;;;;;4965829;28;19910;-91
2022/06/14 01:57:53;;;;;;;;;;;;;;;;;;4965376;28;19913;-91
2022/06/14 02:00:19;;;;;;;;;;;;;;;;;;4972292;28;19914;-91
2022/06/14 02:02:45;;;;;;;;;;;;;;;;;;4970688;28;19917;-90
2022/06/14 02:05:11;;;;;;;;;;;;;;;;;;4967298;28;19920;-91
2022/06/14 02:07:38;;;;;;;;;;;;;;;;;;4983036;28;20008;-91
2022/06/14 02:10:04;;;;;;;;;;;;;;;;;;4968470;28;19964;-91
2022/06/14 02:12:30;;;;;;;;;;;;;;;;;;4983954;28;19914;-91
2022/06/14 02:14:56;;;;;;;;;;;;;;;;;;4987540;28;19917;-91
2022/06/14 02:17:22;;;;;;;;;;;;;;;;;;4973921;28;19916;-89
2022/06/14 02:19:48;;;;;;;;;;;;;;;;;;4967850;28;19913;-91
2022/06/14 02:22:14;;;;;;;;;;;;;;;;;;4979459;28;19910;-90
2022/06/14 02:24:41;;;;;;;;;;;;;;;;;;4970581;28;20421;-91
2022/06/14 02:27:08;;;;;;;;;;;;;;;;;;4981434;28;19917;-91
2022/06/14 02:29:34;;;;;;;;;;;;;;;;;;4975852;28;20096;-91
2022/06/14 02:32:00;;;;;;;;;;;;;;;;;;4978943;28;20500;-92
2022/06/14 02:34:26;;;;;;;;;;;;;;;;;;4982560;28;19914;-89
2022/06/14 02:36:52;;;;;;;;;;;;;;;;;;4984214;28;20563;-91
2022/06/14 02:39:18;;;;;;;;;;;;;;;;;;4977633;28;19917;-91
2022/06/14 02:41:44;;;;;;;;;;;;;;;;;;4969606;28;19917;-90
2022/06/14 02:44:10;;;;;;;;;;;;;;;;;;4982245;28;19913;-90
2022/06/14 02:46:36;;;;;;;;;;;;;;;;;;4969060;28;19944;-90
2022/06/14 02:49:02;;;;;;;;;;;;;;;;;;4982796;28;19913;-89
2022/06/14 02:51:28;;;;;;;;;;;;;;;;;;4968628;28;20021;-91
2022/06/14 02:53:54;;;;;;;;;;;;;;;;;;4971441;28;20362;-90
2022/06/14 02:56:19;;;;;;;;;;;;;;;;;;4972225;28;19909;-90
2022/06/14 02:58:45;;;;;;;;;;;;;;;;;;4986173;28;20003;-91
2022/06/14 03:01:11;;;;;;;;;;;;;;;;;;4969099;28;19925;-91
2022/06/14 03:03:38;;;;;;;;;;;;;;;;;;4984493;28;20008;-92
2022/06/14 03:06:04;;;;;;;;;;;;;;;;;;4972144;28;19964;-91
2022/06/14 03:08:30;;;;;;;;;;;;;;;;;;4967406;28;19910;-91
2022/06/14 03:10:56;;;;;;;;;;;;;;;;;;4966171;28;19916;-90
2022/06/14 03:13:22;;;;;;;;;;;;;;;;;;4970089;28;19929;-91
2022/06/14 03:15:47;;;;;;;;;;;;;;;;;;4963766;28;19910;-89
2022/06/14 03:18:14;;;;;;;;;;;;;;;;;;4961651;28;20262;-91
2022/06/14 03:20:39;;;;;;;;;;;;;;;;;;4966411;28;20407;-91
2022/06/14 03:23:05;;;;;;;;;;;;;;;;;;4971667;28;19935;-91
2022/06/14 03:25:31;;;;;;;;;;;;;;;;;;4969716;28;19924;-91
2022/06/14 03:27:57;;;;;;;;;;;;;;;;;;4992458;28;19968;-91
2022/06/14 03:30:23;;;;;;;;;;;;;;;;;;4971604;28;20483;-91
2022/06/14 03:32:49;;;;;;;;;;;;;;;;;;4976976;28;19970;-91
2022/06/14 03:35:15;;;;;;;;;;;;;;;;;;4986147;28;19921;-91
2022/06/14 03:37:41;;;;;;;;;;;;;;;;;;4974513;28;19917;-90
2022/06/14 03:40:07;;;;;;;;;;;;;;;;;;4970413;28;19914;-91
2022/06/14 03:42:33;;;;;;;;;;;;;;;;;;4984101;28;19917;-91
2022/06/14 03:44:59;;;;;;;;;;;;;;;;;;4972371;28;20362;-90
2022/06/14 03:47:25;;;;;;;;;;;;;;;;;;4976978;28;20432;-91
2022/06/14 03:49:51;;;;;;;;;;;;;;;;;;4976182;28;19945;-91
2022/06/14 03:52:17;;;;;;;;;;;;;;;;;;4971142;28;19984;-91
2022/06/14 03:54:43;;;;;;;;;;;;;;;;;;4968799;28;20392;-91
2022/06/14 03:57:09;;;;;;;;;;;;;;;;;;4965823;28;20325;-90
2022/06/14 03:59:34;;;;;;;;;;;;;;;;;;4963574;28;19925;-89
2022/06/14 04:02:00;;;;;;;;;;;;;;;;;;4980871;28;20044;-91
2022/06/14 04:04:26;;;;;;;;;;;;;;;;;;4967470;28;20354;-91
2022/06/14 04:06:52;;;;;;;;;;;;;;;;;;4984041;28;19921;-91
2022/06/14 04:09:18;;;;;;;;;;;;;;;;;;4969397;28;19918;-89
2022/06/14 04:11:44;;;;;;;;;;;;;;;;;;4986653;28;20369;-91
2022/06/14 04:14:10;;;;;;;;;;;;;;;;;;4983351;28;20400;-91
2022/06/14 04:16:36;;;;;;;;;;;;;;;;;;4967479;28;19913;-91
2022/06/14 04:19:03;;;;;;;;;;;;;;;;;;4980787;28;19922;-91
2022/06/14 04:21:29;;;;;;;;;;;;;;;;;;4986627;28;20473;-90
2022/06/14 04:23:55;;;;;;;;;;;;;;;;;;4984654;28;20392;-90
2022/06/14 04:26:21;;;;;;;;;;;;;;;;;;4982671;28;19914;-91
2022/06/14 04:28:47;;;;;;;;;;;;;;;;;;4965790;28;19944;-92
2022/06/14 04:31:13;;;;;;;;;;;;;;;;;;4965199;28;19921;-92
2022/06/14 04:33:39;;;;;;;;;;;;;;;;;;4985164;28;19980;-91
2022/06/14 04:36:12;;;;;;;;;;;;;;;;;;4970853;28;20048;-92
2022/06/14 04:38:38;;;;;;;;;;;;;;;;;;4982667;28;19928;-91
2022/06/14 04:41:04;;;;;;;;;;;;;;;;;;4982812;28;20369;-90
2022/06/14 04:43:29;;;;;;;;;;;;;;;;;;4986027;28;19917;-92
2022/06/14 04:45:56;;;;;;;;;;;;;;;;;;4972119;28;20255;-92
2022/06/14 04:48:23;;;;;;;;;;;;;;;;;;4970426;28;19913;-92
2022/06/14 04:50:49;;;;;;;;;;;;;;;;;;4983789;28;19914;-91
2022/06/14 04:53:16;;;;;;;;;;;;;;;;;;4968094;28;20278;-91
2022/06/14 04:55:42;;;;;;;;;;;;;;;;;;4969582;28;20429;-92
2022/06/14 04:58:08;;;;;;;;;;;;;;;;;;4982545;28;20025;-92
2022/06/14 05:00:34;;;;;;;;;;;;;;;;;;4984516;28;19929;-92
2022/06/14 05:03:00;;;;;;;;;;;;;;;;;;4982405;28;20381;-92
2022/06/14 05:05:26;;;;;;;;;;;;;;;;;;4986505;28;19909;-92
2022/06/14 05:07:52;;;;;;;;;;;;;;;;;;4982930;28;20000;-92
2022/06/14 05:10:18;;;;;;;;;;;;;;;;;;4967942;28;19917;-92
2022/06/14 05:12:45;;;;;;;;;;;;;;;;;;4970941;28;19921;-92
2022/06/14 05:15:11;;;;;;;;;;;;;;;;;;4970653;28;20250;-91
2022/06/14 05:17:37;;;;;;;;;;;;;;;;;;4971541;28;19917;-93
2022/06/14 05:20:03;;;;;;;;;;;;;;;;;;4973273;28;19913;-93
2022/06/14 05:22:30;;;;;;;;;;;;;;;;;;4969248;28;19948;-91
2022/06/14 05:24:56;;;;;;;;;;;;;;;;;;4988653;28;19964;-91
2022/06/14 05:27:22;;;;;;;;;;;;;;;;;;4968330;28;19909;-92
2022/06/14 05:29:48;;;;;;;;;;;;;;;;;;4967199;28;19924;-90
2022/06/14 05:32:14;;;;;;;;;;;;;;;;;;4963330;28;19918;-93
2022/06/14 05:34:40;;;;;;;;;;;;;;;;;;4972429;28;19914;-90
2022/06/14 05:37:06;;;;;;;;;;;;;;;;;;4971079;28;19983;-92
2022/06/14 05:39:32;;;;;;;;;;;;;;;;;;4972249;28;19959;-92
2022/06/14 05:42:02;;;;;;;;;;;;;;;;;;4975703;28;20045;-94
2022/06/14 05:44:28;;;;;;;;;;;;;;;;;;4962808;28;20004;-92
2022/06/14 05:46:54;;;;;;;;;;;;;;;;;;4977505;28;20207;-91
2022/06/14 05:49:20;;;;;;;;;;;;;;;;;;4972327;28;20004;-93
2022/06/14 05:51:46;;;;;;;;;;;;;;;;;;4971533;28;20549;-89
2022/06/14 05:54:12;;;;;;;;;;;;;;;;;;4987392;28;20012;-88
2022/06/14 05:56:38;;;;;;;;;;;;;;;;;;4986431;28;19964;-88
2022/06/14 05:59:04;;;;;;;;;;;;;;;;;;4972613;28;20206;-88
2022/06/14 06:01:30;;;;;;;;;;;;;;;;;;4959740;28;20459;-88
2022/06/14 06:03:55;;;;;;;;;;;;;;;;;;4987977;28;19934;-85
2022/06/14 06:06:21;;;;;;;;;;;;;;;;;;4983767;28;19925;-88
2022/06/14 06:08:47;;;;;;;;;;;;;;;;;;4985025;28;19913;-88
2022/06/14 06:11:13;;;;;;;;;;;;;;;;;;4985795;28;19918;-88
2022/06/14 06:13:39;;;;;;;;;;;;;;;;;;4975391;28;19914;-88
2022/06/14 06:16:05;;;;;;;;;;;;;;;;;;4978831;28;19909;-88
2022/06/14 06:18:31;;;;;;;;;;;;;;;;;;4967979;28;19909;-89
2022/06/14 06:20:57;;;;;;;;;;;;;;;;;;4978691;28;19921;-93
2022/06/14 06:23:23;;;;;;;;;;;;;;;;;;4967623;28;20369;-91
2022/06/14 06:25:49;;;;;;;;;;;;;;;;;;4970281;28;20016;-93
2022/06/14 06:28:15;;;;;;;;;;;;;;;;;;4968002;28;19985;-91
2022/06/14 06:30:41;;;;;;;;;;;;;;;;;;4972817;28;19914;-93
2022/06/14 06:33:10;;;;;;;;;;;;;;;;;;4987388;28;20409;-93
2022/06/14 06:35:36;;;;;;;;;;;;;;;;;;4997293;28;19914;-92
2022/06/14 06:38:02;;;;;;;;;;;;;;;;;;4979357;28;19914;-93
2022/06/14 06:40:28;;;;;;;;;;;;;;;;;;4975859;28;19917;-93
2022/06/14 06:42:54;;;;;;;;;;;;;;;;;;4979352;28;20427;-94
2022/06/14 06:45:20;;;;;;;;;;;;;;;;;;4980002;28;19917;-93
2022/06/14 06:47:45;;;;;;;;;;;;;;;;;;4986248;28;19906;-93
2022/06/14 06:50:11;;;;;;;;;;;;;;;;;;4970718;28;19949;-93
2022/06/14 06:52:37;;;;;;;;;;;;;;;;;;4979233;28;19916;-94
2022/06/14 06:55:03;;;;;;;;;;;;;;;;;;4978832;28;19937;-94
2022/06/14 06:57:29;;;;;;;;;;;;;;;;;;4988388;28;19979;-94
2022/06/14 06:59:55;;;;;;;;;;;;;;;;;;4985079;28;19922;-93
2022/06/14 07:02:21;;;;;;;;;;;;;;;;;;4972833;28;19913;-93
2022/06/14 07:05:06;;;;;;;;;;;;;;;;;;4984936;28;19953;-95
2022/06/14 07:07:31;;;;;;;;;;;;;;;;;;4971390;28;19975;-93
2022/06/14 07:09:57;;;;;;;;;;;;;;;;;;4977702;28;19941;-96
2022/06/14 07:12:23;;;;;;;;;;;;;;;;;;4972166;28;19913;-93
2022/06/14 07:14:49;;;;;;;;;;;;;;;;;;4972100;28;19914;-94
2022/06/14 07:17:15;;;;;;;;;;;;;;;;;;4969363;28;19921;-93
2022/06/14 07:19:41;;;;;;;;;;;;;;;;;;4985375;28;19964;-93
2022/06/14 07:22:07;;;;;;;;;;;;;;;;;;4973164;28;19910;-95
2022/06/14 07:24:34;;;;;;;;;;;;;;;;;;4971653;28;19918;-95
2022/06/14 07:27:00;;;;;;;;;;;;;;;;;;4971082;28;19997;-94
2022/06/14 07:29:27;;;;;;;;;;;;;;;;;;4973129;28;19949;-94
2022/06/14 07:31:52;;;;;;;;;;;;;;;;;;4972232;28;20830;-93
2022/06/14 07:34:18;;;;;;;;;;;;;;;;;;4984140;28;19981;-94
2022/06/14 07:36:44;;;;;;;;;;;;;;;;;;4986211;28;20482;-93
2022/06/14 07:39:10;;;;;;;;;;;;;;;;;;4987867;28;19906;-94
2022/06/14 07:41:36;;;;;;;;;;;;;;;;;;4980887;28;19910;-94
2022/06/14 07:44:02;;;;;;;;;;;;;;;;;;4973404;28;20004;-94
2022/06/14 07:46:28;;;;;;;;;;;;;;;;;;4974763;28;19910;-94
2022/06/14 07:48:54;;;;;;;;;;;;;;;;;;4972251;28;19959;-95
2022/06/14 07:51:21;;;;;;;;;;;;;;;;;;4970436;28;19906;-95
2022/06/14 07:53:47;;;;;;;;;;;;;;;;;;4986181;28;19957;-94
2022/06/14 07:56:13;;;;;;;;;;;;;;;;;;4972790;28;19913;-93
2022/06/14 07:58:38;;;;;;;;;;;;;;;;;;4988101;28;19906;-94
2022/06/14 08:01:07;;;;;;;;;;;;;;;;;;4971000;28;20020;-94
2022/06/14 08:03:34;;;;;;;;;;;;;;;;;;4986205;28;19975;-94
2022/06/14 08:05:59;;;;;;;;;;;;;;;;;;4970993;28;19916;-95
2022/06/14 08:08:25;;;;;;;;;;;;;;;;;;4975211;28;20298;-94
2022/06/14 08:10:53;;;;;;;;;;;;;;;;;;4972483;28;19917;-93
2022/06/14 08:13:18;;;;;;;;;;;;;;;;;;4972830;28;19936;-94
2022/06/14 08:15:44;;;;;;;;;;;;;;;;;;4975033;28;19918;-93
2022/06/14 08:18:10;;;;;;;;;;;;;;;;;;4974255;28;19909;-94
2022/06/14 08:20:36;;;;;;;;;;;;;;;;;;4970524;28;19921;-93
2022/06/14 08:23:02;;;;;;;;;;;;;;;;;;4987742;28;19909;-93
2022/06/14 08:25:28;;;;;;;;;;;;;;;;;;4973534;28;19917;-93
2022/06/14 08:27:56;;;;;;;;;;;;;;;;;;4970269;28;19964;-93
2022/06/14 08:30:23;;;;;;;;;;;;;;;;;;4984027;28;19923;-94
2022/06/14 08:32:49;;;;;;;;;;;;;;;;;;4975053;28;19918;-94
2022/06/14 08:35:14;;;;;;;;;;;;;;;;;;4973428;28;19920;-94
2022/06/14 08:37:40;;;;;;;;;;;;;;;;;;4974468;28;20470;-92
2022/06/14 08:40:10;;;;;;;;;;;;;;;;;;4968279;28;19906;-94
2022/06/14 08:42:35;;;;;;;;;;;;;;;;;;4973648;28;20016;-94
2022/06/14 08:45:01;;;;;;;;;;;;;;;;;;4986800;28;19993;-92
2022/06/14 08:47:27;;;;;;;;;;;;;;;;;;4973936;28;19906;-91
2022/06/14 08:49:53;;;;;;;;;;;;;;;;;;4990930;28;19941;-93
2022/06/14 08:52:19;;;;;;;;;;;;;;;;;;4968134;28;19907;-95
2022/06/14 08:54:45;;;;;;;;;;;;;;;;;;4974595;28;19910;-94
2022/06/14 08:57:11;;;;;;;;;;;;;;;;;;4976757;28;20329;-93
2022/06/14 08:59:37;;;;;;;;;;;;;;;;;;4973086;28;19969;-93
2022/06/14 09:02:03;;;;;;;;;;;;;;;;;;4989923;28;20424;-94
2022/06/14 09:04:29;;;;;;;;;;;;;;;;;;4969703;28;20358;-92
2022/06/14 09:06:55;;;;;;;;;;;;;;;;;;4988407;28;19945;-93
2022/06/14 09:09:21;;;;;;;;;;;;;;;;;;4968775;28;19913;-92
2022/06/14 09:11:47;;;;;;;;;;;;;;;;;;4990104;28;20008;-93
2022/06/14 09:14:12;;;;;;;;;;;;;;;;;;4972245;28;19926;-94
2022/06/14 09:16:38;;;;;;;;;;;;;;;;;;4972813;28;19909;-93
2022/06/14 09:19:04;;;;;;;;;;;;;;;;;;4960664;28;20399;-93
2022/06/14 09:21:30;;;;;;;;;;;;;;;;;;4975586;28;19909;-93
2022/06/14 09:23:56;;;;;;;;;;;;;;;;;;4972506;28;19917;-93
2022/06/14 09:26:22;;;;;;;;;;;;;;;;;;4969272;28;19925;-93
2022/06/14 09:28:48;;;;;;;;;;;;;;;;;;4972422;28;19909;-93
2022/06/14 09:31:14;;;;;;;;;;;;;;;;;;4970974;28;19969;-93
2022/06/14 09:33:40;;;;;;;;;;;;;;;;;;4972107;28;19920;-93
2022/06/14 09:36:06;;;;;;;;;;;;;;;;;;4969371;28;19910;-93
2022/06/14 09:38:32;;;;;;;;;;;;;;;;;;4986594;28;19917;-92
2022/06/14 09:40:59;;;;;;;;;;;;;;;;;;4983891;28;20350;-93
2022/06/14 09:43:24;;;;;;;;;;;;;;;;;;4971414;28;20400;-93
2022/06/14 09:45:50;;;;;;;;;;;;;;;;;;4965240;28;19914;-92
2022/06/14 09:48:16;;;;;;;;;;;;;;;;;;4973981;28;19949;-93
2022/06/14 09:50:42;;;;;;;;;;;;;;;;;;4972750;28;19921;-92
2022/06/14 09:53:08;;;;;;;;;;;;;;;;;;4971930;28;19913;-93
2022/06/14 09:55:34;;;;;;;;;;;;;;;;;;4971508;28;20008;-93
2022/06/14 09:58:00;;;;;;;;;;;;;;;;;;4985145;28;19914;-93
2022/06/14 10:00:26;;;;;;;;;;;;;;;;;;4971909;28;19916;-91
2022/06/14 10:02:52;;;;;;;;;;;;;;;;;;4988845;28;20009;-93
2022/06/14 10:05:18;;;;;;;;;;;;;;;;;;4971704;28;19941;-93
2022/06/14 10:07:50;;;;;;;;;;;;;;;;;;4977545;28;19917;-92
2022/06/14 10:10:16;;;;;;;;;;;;;;;;;;4972990;28;20287;-91
2022/06/14 10:12:42;;;;;;;;;;;;;;;;;;4990962;28;19930;-92
2022/06/14 10:15:08;;;;;;;;;;;;;;;;;;4979544;28;20253;-93
2022/06/14 10:17:34;;;;;;;;;;;;;;;;;;4970070;28;19914;-91
2022/06/14 10:20:00;;;;;;;;;;;;;;;;;;4967741;28;19906;-93
2022/06/14 10:22:26;;;;;;;;;;;;;;;;;;4970275;28;19910;-91
2022/06/14 10:24:52;;;;;;;;;;;;;;;;;;4969994;28;19913;-91
2022/06/14 10:30:03;;;;;;;;;;;;;;;;;;4986067;28;20476;-91
2022/06/14 10:32:29;;;;;;;;;;;;;;;;;;4964685;28;20000;-91
2022/06/14 10:34:54;;;;;;;;;;;;;;;;;;4981475;28;19910;-90
2022/06/14 10:37:29;;;;;;;;;;;;;;;;;;4980080;28;19930;-91
2022/06/14 10:39:55;;;;;;;;;;;;;;;;;;4973178;28;19914;-91
2022/06/14 10:42:21;;;;;;;;;;;;;;;;;;4966141;28;20301;-91
2022/06/14 10:44:47;;;;;;;;;;;;;;;;;;4970101;28;19913;-91
2022/06/14 10:47:13;;;;;;;;;;;;;;;;;;4967349;28;19914;-91
2022/06/14 10:49:39;;;;;;;;;;;;;;;;;;4963631;28;19997;-91
2022/06/14 10:52:05;;;;;;;;;;;;;;;;;;4961338;28;19918;-92
2022/06/14 10:54:30;;;;;;;;;;;;;;;;;;4966464;28;19972;-92
2022/06/14 10:56:56;;;;;;;;;;;;;;;;;;4970382;28;19989;-93
2022/06/14 10:59:23;;;;;;;;;;;;;;;;;;4966226;28;20637;-92
2022/06/14 11:01:49;;;;;;;;;;;;;;;;;;4967175;28;20380;-90
2022/06/14 11:04:15;;;;;;;;;;;;;;;;;;4966529;28;19914;-91
2022/06/14 11:06:41;;;;;;;;;;;;;;;;;;4964070;28;19945;-91
2022/06/14 11:09:08;;;;;;;;;;;;;;;;;;4979384;28;19918;-92
2022/06/14 11:11:34;;;;;;;;;;;;;;;;;;4964394;28;20004;-92
2022/06/14 11:14:00;;;;;;;;;;;;;;;;;;4969876;28;19913;-91
2022/06/14 11:16:26;;;;;;;;;;;;;;;;;;4965351;28;19948;-91
2022/06/14 11:18:52;;;;;;;;;;;;;;;;;;4965943;28;20252;-91
2022/06/14 11:21:18;;;;;;;;;;;;;;;;;;4962749;28;20012;-91
2022/06/14 11:23:44;;;;;;;;;;;;;;;;;;4965768;28;20234;-91
2022/06/14 11:26:10;;;;;;;;;;;;;;;;;;4980029;28;19924;-91
2022/06/14 11:28:36;;;;;;;;;;;;;;;;;;4975636;28;19977;-91
2022/06/14 11:31:02;;;;;;;;;;;;;;;;;;4978566;28;20450;-91
2022/06/14 11:33:28;;;;;;;;;;;;;;;;;;4964822;28;20167;-92
2022/06/14 11:35:54;;;;;;;;;;;;;;;;;;4975560;28;20321;-91
2022/06/14 11:38:22;;;;;;;;;;;;;;;;;;4966636;28;20241;-92
2022/06/14 11:40:48;;;;;;;;;;;;;;;;;;4961012;28;20565;-91
2022/06/14 11:43:14;;;;;;;;;;;;;;;;;;4981696;28;19921;-91
2022/06/14 11:45:40;;;;;;;;;;;;;;;;;;4965171;28;19997;-93
2022/06/14 11:48:07;;;;;;;;;;;;;;;;;;4965002;28;19910;-92
2022/06/14 11:50:32;;;;;;;;;;;;;;;;;;4965090;28;19956;-91
2022/06/14 11:52:58;;;;;;;;;;;;;;;;;;4968225;28;19964;-92
2022/06/14 11:55:24;;;;;;;;;;;;;;;;;;4987024;28;19920;-92
2022/06/14 11:57:50;;;;;;;;;;;;;;;;;;4969846;28;19984;-93
2022/06/14 12:00:17;;;;;;;;;;;;;;;;;;4965836;28;20494;-92
2022/06/14 12:02:43;;;;;;;;;;;;;;;;;;4971548;28;19917;-93
2022/06/14 12:05:09;;;;;;;;;;;;;;;;;;4967037;28;20102;-91
2022/06/14 12:07:35;;;;;;;;;;;;;;;;;;4967825;28;19941;-91
2022/06/14 12:10:01;;;;;;;;;;;;;;;;;;4962036;28;20253;-93
2022/06/14 12:12:27;;;;;;;;;;;;;;;;;;4945792;28;19938;-92
2022/06/14 12:14:52;;;;;;;;;;;;;;;;;;4966039;28;19969;-92
2022/06/14 12:17:20;;;;;;;;;;;;;;;;;;4941165;28;20329;-91
2022/06/14 12:19:46;;;;;;;;;;;;;;;;;;4958118;28;19921;-93
2022/06/14 12:22:28;;;;;;;;;;;;;;;;;;4959578;28;19910;-92
2022/06/14 12:27:39;;;;;;;;;;;;;;;;;;4959647;28;19994;-93
2022/06/14 12:30:05;;;;;;;;;;;;;;;;;;4957454;28;19918;-90
2022/06/14 12:32:31;;;;;;;;;;;;;;;;;;4957090;28;20373;-92
2022/06/14 12:34:57;;;;;;;;;;;;;;;;;;4941805;28;20357;-92
2022/06/14 12:37:22;;;;;;;;;;;;;;;;;;4964337;28;20191;-91
2022/06/14 12:39:48;;;;;;;;;;;;;;;;;;4944968;28;20461;-92
2022/06/14 12:42:14;;;;;;;;;;;;;;;;;;4941603;28;20557;-92
2022/06/14 12:44:40;;;;;;;;;;;;;;;;;;4960380;28;19917;-93
2022/06/14 12:47:06;;;;;;;;;;;;;;;;;;4943403;28;21554;-92
2022/06/14 12:49:32;;;;;;;;;;;;;;;;;;4941831;28;19914;-93
2022/06/14 12:51:58;;;;;;;;;;;;;;;;;;4963122;28;20273;-93
2022/06/14 12:54:25;;;;;;;;;;;;;;;;;;4962671;28;20024;-94
2022/06/14 12:56:51;;;;;;;;;;;;;;;;;;4964647;28;19918;-92
2022/06/14 12:59:17;;;;;;;;;;;;;;;;;;4965639;28;19920;-92
2022/06/14 13:01:43;;;;;;;;;;;;;;;;;;4945138;28;19918;-93
2022/06/14 13:04:09;;;;;;;;;;;;;;;;;;4969127;28;19913;-92
2022/06/14 13:06:34;;;;;;;;;;;;;;;;;;4963878;28;20146;-92
2022/06/14 13:09:00;;;;;;;;;;;;;;;;;;4969603;28;19917;-92
2022/06/14 13:11:26;;;;;;;;;;;;;;;;;;4977539;28;20476;-93
2022/06/14 13:13:52;;;;;;;;;;;;;;;;;;4970060;28;19922;-92
2022/06/14 13:16:18;;;;;;;;;;;;;;;;;;4967882;28;19909;-93
2022/06/14 13:18:44;;;;;;;;;;;;;;;;;;4971279;28;20000;-93
2022/06/14 13:21:10;;;;;;;;;;;;;;;;;;4970179;28;19910;-92
2022/06/14 13:23:36;;;;;;;;;;;;;;;;;;4971589;28;19909;-93
2022/06/14 13:26:02;;;;;;;;;;;;;;;;;;4974491;28;19910;-92
2022/06/14 13:28:32;;;;;;;;;;;;;;;;;;4969916;28;19909;-93
2022/06/14 13:30:58;;;;;;;;;;;;;;;;;;4976428;28;20350;-92
2022/06/14 13:33:24;;;;;;;;;;;;;;;;;;4965766;28;19913;-92
2022/06/14 13:35:53;;;;;;;;;;;;;;;;;;4971099;28;19914;-92
2022/06/14 13:38:19;;;;;;;;;;;;;;;;;;4988753;28;19913;-92
2022/06/14 13:40:44;;;;;;;;;;;;;;;;;;4971012;28;19917;-91
2022/06/14 13:43:11;;;;;;;;;;;;;;;;;;4983034;28;19910;-93
2022/06/14 13:45:37;;;;;;;;;;;;;;;;;;4965981;28;19925;-92
2022/06/14 13:48:03;;;;;;;;;;;;;;;;;;4966964;28;19914;-93
2022/06/14 13:50:29;;;;;;;;;;;;;;;;;;4972439;28;19917;-93
2022/06/14 13:52:54;;;;;;;;;;;;;;;;;;4968654;28;19956;-92
2022/06/14 13:55:20;;;;;;;;;;;;;;;;;;4968374;28;20371;-93
2022/06/14 13:57:48;;;;;;;;;;;;;;;;;;4966354;28;20000;-94
2022/06/14 14:00:14;;;;;;;;;;;;;;;;;;4965288;28;19929;-91
2022/06/14 14:02:40;;;;;;;;;;;;;;;;;;4970941;28;19916;-91
2022/06/14 14:05:06;;;;;;;;;;;;;;;;;;4980517;28;20004;-92
2022/06/14 14:07:32;;;;;;;;;;;;;;;;;;4980131;28;19998;-94
2022/06/14 14:09:58;;;;;;;;;;;;;;;;;;4968480;28;19917;-91
2022/06/14 14:12:24;;;;;;;;;;;;;;;;;;4966332;28;19914;-94
2022/06/14 14:14:50;;;;;;;;;;;;;;;;;;4977104;28;20671;-92
2022/06/14 14:17:16;;;;;;;;;;;;;;;;;;4980007;28;19921;-92
2022/06/14 14:19:43;;;;;;;;;;;;;;;;;;4967602;28;20008;-92
2022/06/14 14:22:09;;;;;;;;;;;;;;;;;;4982771;28;19967;-91
2022/06/14 14:24:35;;;;;;;;;;;;;;;;;;4972555;28;19913;-93
2022/06/14 14:27:01;;;;;;;;;;;;;;;;;;4974231;28;19917;-91
2022/06/14 14:29:27;;;;;;;;;;;;;;;;;;4971449;28;19921;-93
2022/06/14 14:31:53;;;;;;;;;;;;;;;;;;4981180;28;20284;-93
2022/06/14 14:34:19;;;;;;;;;;;;;;;;;;4984533;28;19945;-94
2022/06/14 14:36:44;;;;;;;;;;;;;;;;;;4967918;28;19955;-94
2022/06/14 14:39:10;;;;;;;;;;;;;;;;;;4969961;28;19924;-93
2022/06/14 14:41:39;;;;;;;;;;;;;;;;;;4989530;28;19914;-93
2022/06/14 14:44:05;;;;;;;;;;;;;;;;;;4985762;28;19940;-94
2022/06/14 14:46:31;;;;;;;;;;;;;;;;;;4979344;28;19914;-93
2022/06/14 14:48:57;;;;;;;;;;;;;;;;;;4982459;28;20255;-92
2022/06/14 14:51:23;;;;;;;;;;;;;;;;;;4967523;28;19918;-94
2022/06/14 14:53:49;;;;;;;;;;;;;;;;;;4968798;28;19917;-92
2022/06/14 14:56:15;;;;;;;;;;;;;;;;;;4967727;28;19947;-92
2022/06/14 14:58:42;;;;;;;;;;;;;;;;;;4977704;28;20029;-92
2022/06/14 15:06:38;;;;;;;;;;;;;;;;;;4982266;28;20075;-92
2022/06/14 15:09:04;;;;;;;;;;;;;;;;;;4963722;28;20032;-92
2022/06/14 15:11:30;;;;;;;;;;;;;;;;;;4982016;28;19922;-92
2022/06/14 15:13:56;;;;;;;;;;;;;;;;;;4965209;28;19914;-92
2022/06/14 15:16:24;;;;;;;;;;;;;;;;;;4964578;28;19924;-93
2022/06/14 15:21:36;;;;;;;;;;;;;;;;;;4985575;28;20384;-93
2022/06/14 15:24:01;;;;;;;;;;;;;;;;;;4967060;28;19940;-94
2022/06/14 15:26:27;;;;;;;;;;;;;;;;;;4967312;28;19918;-92
2022/06/14 15:28:53;;;;;;;;;;;;;;;;;;4968485;28;20401;-93
2022/06/14 15:31:19;;;;;;;;;;;;;;;;;;4979910;28;19914;-93
2022/06/14 15:33:45;;;;;;;;;;;;;;;;;;4971429;28;19945;-92
2022/06/14 15:36:11;;;;;;;;;;;;;;;;;;4973708;28;19964;-93
2022/06/14 15:38:37;;;;;;;;;;;;;;;;;;4985392;28;19914;-93
2022/06/14 15:41:03;;;;;;;;;;;;;;;;;;4967149;28;19913;-93
2022/06/14 15:43:32;;;;;;;;;;;;;;;;;;4977914;28;19946;-92
2022/06/14 15:45:58;;;;;;;;;;;;;;;;;;4977946;28;19992;-94
2022/06/14 15:48:26;;;;;;;;;;;;;;;;;;4965171;28;20016;-93
2022/06/14 15:50:52;;;;;;;;;;;;;;;;;;4968321;28;20388;-93
2022/06/14 15:53:18;;;;;;;;;;;;;;;;;;4967652;28;19917;-90
2022/06/14 15:55:43;;;;;;;;;;;;;;;;;;4970513;28;19918;-92
2022/06/14 15:58:09;;;;;;;;;;;;;;;;;;4973480;28;20370;-93
2022/06/14 16:00:35;;;;;;;;;;;;;;;;;;4971143;28;19920;-92
2022/06/14 16:03:01;;;;;;;;;;;;;;;;;;4966004;28;19913;-91
2022/06/14 16:05:27;;;;;;;;;;;;;;;;;;4971362;28;19964;-93
2022/06/14 16:08:00;;;;;;;;;;;;;;;;;;4971270;28;19948;-92
2022/06/14 16:10:26;;;;;;;;;;;;;;;;;;4983152;28;19958;-92
2022/06/14 16:12:52;;;;;;;;;;;;;;;;;;4968390;28;19961;-92
2022/06/14 16:15:18;;;;;;;;;;;;;;;;;;4967319;28;20336;-91
2022/06/14 16:17:45;;;;;;;;;;;;;;;;;;4968434;28;20076;-93
2022/06/14 16:20:11;;;;;;;;;;;;;;;;;;4969229;28;19914;-92
2022/06/14 16:22:37;;;;;;;;;;;;;;;;;;4971672;28;19984;-91
2022/06/14 16:25:03;;;;;;;;;;;;;;;;;;4966399;28;20015;-92
2022/06/14 16:27:30;;;;;;;;;;;;;;;;;;4966982;28;19976;-92
2022/06/14 16:29:55;;;;;;;;;;;;;;;;;;4975003;28;20279;-93
2022/06/14 16:32:21;;;;;;;;;;;;;;;;;;4975819;28;19949;-92
2022/06/14 16:34:47;;;;;;;;;;;;;;;;;;4968127;28;19926;-92
2022/06/14 16:37:14;;;;;;;;;;;;;;;;;;4969540;28;19918;-92
2022/06/14 16:39:40;;;;;;;;;;;;;;;;;;4973391;28;19954;-92
2022/06/14 16:42:06;;;;;;;;;;;;;;;;;;4976739;28;19922;-92
2022/06/14 16:44:32;;;;;;;;;;;;;;;;;;4973110;28;20386;-92
2022/06/14 16:46:58;;;;;;;;;;;;;;;;;;4970464;28;19973;-92
2022/06/14 16:49:27;;;;;;;;;;;;;;;;;;4973523;28;19909;-91
2022/06/14 16:51:53;;;;;;;;;;;;;;;;;;4973551;28;19972;-92
2022/06/14 16:54:19;;;;;;;;;;;;;;;;;;4973272;28;20052;-94
2022/06/14 16:56:45;;;;;;;;;;;;;;;;;;4974460;28;19920;-90